createdAt,value
2018-08-28T06:50:39.333Z,20.30
2018-08-28T06:53:06.843Z,20.60
2018-08-28T06:55:34.355Z,20.80
2018-08-28T06:58:01.865Z,21.00
2018-08-28T07:00:29.376Z,21.10
2018-08-28T07:02:56.887Z,21.20
2018-08-28T07:05:24.429Z,21.20
2018-08-28T07:07:52.005Z,21.20
2018-08-28T07:10:19.559Z,21.30
2018-08-28T07:12:47.004Z,21.40
2018-08-28T07:15:14.519Z,21.50
2018-08-28T07:17:42.032Z,21.60
2018-08-28T07:20:09.561Z,21.60
2018-08-28T07:22:37.105Z,21.80
2018-08-28T07:25:04.648Z,21.80
2018-08-28T07:27:32.163Z,21.90
2018-08-28T07:30:00.499Z,22.00
2018-08-28T07:32:28.005Z,22.00
2018-08-28T07:34:55.511Z,21.90
2018-08-28T07:37:24.059Z,21.90
2018-08-28T07:39:51.534Z,21.90
2018-08-28T07:42:19.065Z,21.70
2018-08-28T07:44:46.601Z,21.50
2018-08-28T07:47:14.106Z,21.40
2018-08-28T07:49:41.648Z,21.40
2018-08-28T07:52:09.176Z,21.40
2018-08-28T07:54:36.765Z,21.50
2018-08-28T07:57:04.245Z,21.50
2018-08-28T07:59:31.782Z,21.60
2018-08-28T08:01:59.293Z,21.60
2018-08-28T08:04:26.834Z,21.70
2018-08-28T08:06:54.338Z,21.70
2018-08-28T08:09:21.866Z,21.70
2018-08-28T08:11:49.379Z,21.80
2018-08-28T08:14:16.983Z,21.80
2018-08-28T08:16:44.717Z,21.80
2018-08-28T08:19:12.289Z,21.80
2018-08-28T08:21:39.804Z,21.80
2018-08-28T08:24:07.357Z,21.90
2018-08-28T08:26:34.876Z,21.90
2018-08-28T12:31:28.816Z,23.10
2018-08-28T12:33:56.421Z,23.00
2018-08-28T12:36:24.022Z,23.20
2018-08-28T12:38:52.408Z,23.50
2018-08-28T12:41:20.691Z,23.80
2018-08-28T12:43:48.338Z,23.90
2018-08-28T12:46:16.008Z,23.80
2018-08-28T12:48:43.649Z,23.80
2018-08-28T13:04:56.701Z,24.10
2018-08-28T13:07:33.136Z,24.10
2018-08-28T13:10:01.531Z,24.10
2018-08-28T13:12:29.755Z,24.20
2018-08-28T13:14:57.281Z,24.20
2018-08-28T13:17:24.818Z,24.20
2018-08-28T13:19:52.340Z,24.10
2018-08-28T13:22:19.877Z,24.20
2018-08-28T13:24:47.388Z,24.20
2018-08-28T13:27:14.915Z,24.30
2018-08-28T13:29:42.436Z,24.30
2018-08-28T13:32:09.960Z,24.50
2018-08-28T13:34:37.482Z,24.50
2018-08-28T13:37:05.021Z,24.50
2018-08-28T13:39:32.550Z,24.40
2018-08-28T13:42:00.553Z,24.50
2018-08-28T13:44:28.070Z,24.50
2018-08-28T13:46:55.652Z,24.50
2018-08-28T13:49:23.197Z,24.50
2018-08-28T13:51:50.732Z,24.50
2018-08-28T13:54:18.463Z,24.50
2018-08-28T13:56:45.935Z,24.50
2018-08-28T13:59:13.492Z,24.50
2018-08-28T14:01:41.025Z,24.50
2018-08-28T14:04:08.592Z,24.40
2018-08-28T14:06:36.118Z,24.40
2018-08-28T14:09:04.372Z,24.50
2018-08-28T14:11:31.903Z,24.40
2018-08-28T14:13:59.471Z,24.30
2018-08-28T14:16:26.957Z,24.30
2018-08-28T14:18:54.484Z,24.30
2018-08-28T14:21:22.469Z,24.40
2018-08-28T14:23:49.973Z,24.40
2018-08-28T14:26:18.205Z,24.30
2018-08-28T14:28:45.789Z,24.30
2018-08-28T14:31:13.269Z,24.30
2018-08-28T14:33:40.778Z,24.30
2018-08-28T14:36:08.305Z,24.40
2018-08-28T14:38:35.841Z,24.40
2018-08-28T14:41:03.356Z,24.50
2018-08-28T14:43:30.925Z,24.40
2018-08-28T14:45:58.432Z,24.40
2018-08-28T14:48:25.972Z,24.40
2018-08-28T14:50:53.487Z,24.30
2018-08-28T14:53:21.022Z,24.30
2018-08-28T14:55:48.546Z,24.30
2018-08-28T14:58:16.089Z,24.30
2018-08-28T15:00:43.599Z,24.30
2018-08-28T15:03:11.469Z,24.20
2018-08-28T15:05:38.982Z,24.20
2018-08-28T15:08:06.510Z,24.10
